Time;durP1;ratioP1;P1;durP2;ratioP2;P2;SDS_P1;SDS_P2;PMS_P1;PMS_P2;Temp;Humidity;BMP_temperature;BMP_pressure;BME280_temperature;BME280_humidity;BME280_pressure;Samples;Min_cycle;Max_cycle;Signal;HPM_P1;HPM_P2
2023/06/26 00:02:08;;;;;;;8.23;7.05;;;;;;;24.77;53.68;101294.16;7380796;19;20379;-69
2023/06/26 00:04:37;;;;;;;;;;;;;;;24.42;54.85;101291.88;7383135;19;19918;-68
2023/06/26 00:07:06;;;;;;;11.07;7.72;;;;;;;24.71;54.15;101294.41;7380068;19;19925;-69
2023/06/26 00:09:35;;;;;;;8.23;6.78;;;;;;;24.71;53.79;101286.97;7383510;19;19933;-67
2023/06/26 00:12:04;;;;;;;8.30;7.10;;;;;;;24.70;54.06;101288.06;7381509;19;19997;-68
2023/06/26 00:14:32;;;;;;;8.68;7.78;;;;;;;24.67;54.13;101290.50;7377444;19;20466;-68
2023/06/26 00:17:01;;;;;;;11.13;7.95;;;;;;;24.58;54.16;101283.78;7379419;19;20372;-67
2023/06/26 00:19:33;;;;;;;10.30;7.88;;;;;;;24.49;54.83;101275.16;7378693;19;19929;-68
2023/06/26 00:22:01;;;;;;;13.52;7.72;;;;;;;24.47;54.82;101282.84;7380577;19;19927;-69
2023/06/26 00:24:30;;;;;;;8.70;7.63;;;;;;;24.40;54.97;101274.78;7378179;19;19930;-69
2023/06/26 00:26:59;;;;;;;8.60;7.70;;;;;;;24.36;54.85;101265.38;7381553;19;19926;-68
2023/06/26 00:29:27;;;;;;;10.13;7.90;;;;;;;24.36;54.36;101265.38;7379058;19;19970;-68
2023/06/26 00:31:56;;;;;;;8.30;7.25;;;;;;;24.35;54.74;101260.97;7385482;19;19937;-69
2023/06/26 00:34:25;;;;;;;10.13;8.13;;;;;;;24.30;54.77;101266.41;7385529;19;20032;-69
2023/06/26 00:36:56;;;;;;;9.75;7.82;;;;;;;24.29;54.83;101263.94;7384801;19;19926;-69
2023/06/26 00:39:25;;;;;;;9.23;7.60;;;;;;;24.26;55.12;101259.75;7384170;19;19926;-68
2023/06/26 00:41:55;;;;;;;9.23;7.70;;;;;;;24.25;55.33;101252.56;7385592;19;22282;-68
2023/06/26 00:44:24;;;;;;;10.10;8.48;;;;;;;24.23;55.22;101254.78;7383897;19;19932;-69
2023/06/26 00:46:53;;;;;;;10.55;7.65;;;;;;;24.18;55.13;101246.44;7383487;19;19926;-68
2023/06/26 00:49:22;;;;;;;10.73;8.38;;;;;;;24.12;55.68;101247.44;7384802;19;19926;-68
2023/06/26 00:51:52;;;;;;;10.88;7.35;;;;;;;24.09;56.00;101239.69;7387554;19;19942;-68
2023/06/26 00:54:23;;;;;;;11.23;8.32;;;;;;;24.04;56.11;101233.28;7379479;19;19922;-68
2023/06/26 00:56:52;;;;;;;9.65;8.15;;;;;;;24.00;55.97;101230.22;7384122;19;19942;-69
2023/06/26 00:59:21;;;;;;;10.30;7.82;;;;;;;23.97;55.43;101225.25;7385391;19;19928;-68
2023/06/26 01:01:50;;;;;;;8.80;7.53;;;;;;;23.96;55.55;101223.56;7378749;19;19923;-68
2023/06/26 01:04:19;;;;;;;10.45;8.50;;;;;;;23.92;55.86;101219.69;7382480;19;19986;-68
2023/06/26 01:06:51;;;;;;;10.95;8.23;;;;;;;23.85;55.52;101221.81;7385147;19;19926;-68
2023/06/26 01:09:25;;;;;;;10.75;8.20;;;;;;;23.77;55.97;101211.25;7384095;19;20014;-68
2023/06/26 01:11:54;;;;;;;8.98;8.07;;;;;;;23.78;56.03;101219.22;7385056;19;19927;-67
2023/06/26 01:14:23;;;;;;;9.80;8.00;;;;;;;23.80;56.27;101207.97;7383824;19;19918;-68
2023/06/26 01:16:52;;;;;;;10.48;8.30;;;;;;;23.77;55.91;101209.28;7383110;19;19937;-68
2023/06/26 01:19:28;;;;;;;13.23;8.93;;;;;;;23.74;56.32;101201.56;7383563;19;19925;-68
2023/06/26 01:22:03;;;;;;;12.43;9.32;;;;;;;23.72;56.34;101194.66;7382417;19;19976;-68
2023/06/26 01:24:38;;;;;;;11.50;8.07;;;;;;;23.70;56.86;101194.91;7382460;19;19943;-68
2023/06/26 01:27:11;;;;;;;9.27;8.00;;;;;;;23.69;56.51;101187.75;7382853;19;19986;-68
2023/06/26 01:29:41;;;;;;;11.85;8.48;;;;;;;23.64;56.48;101176.69;7383686;19;19922;-67
2023/06/26 01:32:10;;;;;;;11.95;8.70;;;;;;;23.62;56.89;101180.78;7384568;19;19990;-67
2023/06/26 01:34:40;;;;;;;11.27;8.85;;;;;;;23.62;56.58;101175.28;7379265;19;19943;-67
2023/06/26 01:37:08;;;;;;;9.65;8.65;;;;;;;23.59;56.66;101164.78;7383037;19;20359;-67
2023/06/26 01:39:37;;;;;;;9.77;8.68;;;;;;;23.57;56.93;101167.78;7381667;19;20054;-68
2023/06/26 01:42:09;;;;;;;10.40;8.73;;;;;;;23.58;56.98;101174.97;7384812;19;19946;-68
2023/06/26 01:44:45;;;;;;;10.50;8.55;;;;;;;23.52;57.10;101174.06;7377930;19;19925;-68
2023/06/26 01:47:17;;;;;;;11.32;8.70;;;;;;;23.48;57.29;101174.81;7385752;19;19922;-67
2023/06/26 01:49:51;;;;;;;12.82;9.27;;;;;;;23.43;57.53;101171.97;7384762;19;19933;-68
2023/06/26 01:52:24;;;;;;;10.05;8.45;;;;;;;23.38;57.42;101174.66;7387924;19;19926;-68
2023/06/26 01:55:04;;;;;;;11.65;8.70;;;;;;;23.30;57.61;101170.41;7382748;19;20338;-68
2023/06/26 01:57:37;;;;;;;12.32;8.75;;;;;;;23.30;58.05;101169.59;7385082;19;20416;-68
2023/06/26 02:00:10;;;;;;;10.93;8.07;;;;;;;23.28;58.14;101160.75;7382873;19;20233;-68
2023/06/26 02:02:39;;;;;;;13.07;8.50;;;;;;;23.28;57.93;101160.75;7384986;19;21264;-68
2023/06/26 02:05:09;;;;;;;11.57;9.05;;;;;;;23.28;57.80;101158.00;7381009;19;19919;-68
2023/06/26 02:07:38;;;;;;;11.23;8.38;;;;;;;23.27;57.74;101157.19;7385562;19;19914;-68
2023/06/26 02:10:08;;;;;;;10.00;8.43;;;;;;;23.26;57.74;101154.69;7384087;19;19961;-68
2023/06/26 02:12:40;;;;;;;11.52;8.20;;;;;;;23.22;58.16;101153.53;7382710;19;19926;-68
2023/06/26 02:15:11;;;;;;;11.85;9.18;;;;;;;23.22;58.20;101151.59;7382590;19;20359;-68
2023/06/26 02:17:40;;;;;;;11.07;8.77;;;;;;;23.19;58.09;101149.38;7380079;19;19953;-68
2023/06/26 02:20:10;;;;;;;11.30;9.20;;;;;;;23.16;58.48;101149.91;7384832;19;19944;-68
2023/06/26 02:22:39;;;;;;;11.63;8.93;;;;;;;23.09;58.75;101138.22;7385159;19;19923;-68
2023/06/26 02:25:09;;;;;;;10.88;8.32;;;;;;;23.04;58.15;101149.97;7382538;19;19918;-69
2023/06/26 02:27:40;;;;;;;10.55;8.60;;;;;;;22.99;58.93;101157.34;7376428;19;19918;-69
2023/06/26 02:30:11;;;;;;;9.77;8.27;;;;;;;22.97;58.80;101146.59;7383942;19;20540;-68
2023/06/26 02:32:40;;;;;;;10.65;8.60;;;;;;;22.94;58.79;101143.50;7383051;19;20328;-68
2023/06/26 02:35:10;;;;;;;13.48;9.40;;;;;;;22.89;59.27;101140.69;7383386;19;20324;-68
2023/06/26 02:37:39;;;;;;;11.00;8.90;;;;;;;22.87;59.66;101142.84;7381239;19;19926;-68
2023/06/26 02:40:10;;;;;;;11.77;8.68;;;;;;;22.88;59.19;101137.09;7384409;19;19923;-68
2023/06/26 02:42:41;;;;;;;9.70;8.20;;;;;;;22.88;59.25;101131.59;7383031;19;20376;-69
2023/06/26 02:45:11;;;;;;;9.90;8.48;;;;;;;22.86;59.35;101136.53;7383517;19;20743;-68
2023/06/26 02:47:41;;;;;;;10.30;8.27;;;;;;;22.82;59.26;101127.13;7382240;19;19931;-68
2023/06/26 02:50:10;;;;;;;10.88;8.02;;;;;;;22.83;59.50;101128.78;7384686;19;19926;-67
2023/06/26 02:52:39;;;;;;;10.07;8.63;;;;;;;22.79;59.49;101133.09;7383224;19;19929;-68
2023/06/26 02:55:08;;;;;;;10.50;8.45;;;;;;;22.74;60.24;101127.53;7375660;19;19954;-69
2023/06/26 02:57:37;;;;;;;13.43;8.85;;;;;;;22.70;59.76;101120.88;7382396;19;20034;-68
2023/06/26 03:00:11;;;;;;;10.48;8.63;;;;;;;22.68;60.51;101124.94;7378586;19;20384;-68
2023/06/26 03:02:40;;;;;;;12.38;9.00;;;;;;;22.63;60.42;101121.03;7381266;19;19926;-68
2023/06/26 03:05:10;;;;;;;11.95;8.07;;;;;;;22.59;60.08;101124.53;7379126;19;20344;-68
2023/06/26 03:07:38;;;;;;;9.32;7.90;;;;;;;22.51;60.21;101125.78;7383890;19;20354;-68
2023/06/26 03:10:08;;;;;;;11.50;8.73;;;;;;;22.44;60.96;101124.25;7380359;19;19921;-69
2023/06/26 03:12:37;;;;;;;12.95;9.57;;;;;;;22.34;61.01;101127.69;7384611;19;19919;-68
2023/06/26 03:15:11;;;;;;;11.73;9.02;;;;;;;22.30;60.63;101123.78;7379178;19;19954;-68
2023/06/26 03:17:39;;;;;;;15.32;9.75;;;;;;;22.28;61.27;101125.94;7382180;19;19918;-68
2023/06/26 03:20:10;;;;;;;12.93;10.15;;;;;;;22.22;61.49;101126.91;7381902;19;19930;-68
2023/06/26 03:22:39;;;;;;;13.45;10.55;;;;;;;22.14;62.27;101128.16;7382986;19;20267;-68
2023/06/26 03:25:08;;;;;;;11.75;9.57;;;;;;;22.13;61.63;101117.44;7379608;19;19929;-69
2023/06/26 03:27:37;;;;;;;11.25;9.23;;;;;;;22.10;61.81;101123.41;7380388;19;19915;-68
2023/06/26 03:30:09;;;;;;;12.73;9.20;;;;;;;22.08;61.83;101120.09;7389529;19;19974;-68
2023/06/26 03:32:38;;;;;;;11.10;8.90;;;;;;;22.05;61.60;101115.06;7381589;19;19925;-68
2023/06/26 03:35:09;;;;;;;12.02;8.93;;;;;;;22.03;62.22;101117.25;7380739;19;19922;-68
2023/06/26 03:37:38;;;;;;;9.80;8.43;;;;;;;22.05;62.13;101117.81;7380998;19;20229;-68
2023/06/26 03:40:07;;;;;;;11.02;9.38;;;;;;;22.10;61.87;101118.75;7379271;19;20271;-68
2023/06/26 03:42:36;;;;;;;11.10;9.55;;;;;;;22.15;61.66;101118.00;7381670;19;19919;-68
2023/06/26 03:45:05;;;;;;;11.98;8.88;;;;;;;22.14;61.68;101119.06;7378734;19;19922;-67
2023/06/26 03:47:36;;;;;;;14.00;9.93;;;;;;;22.12;61.83;101124.84;7380924;19;20559;-68
2023/06/26 03:50:05;;;;;;;12.45;9.43;;;;;;;22.09;61.97;101127.25;7384231;19;19982;-68
2023/06/26 03:52:34;;;;;;;11.20;9.60;;;;;;;22.08;61.64;101131.06;7378527;19;19933;-68
2023/06/26 03:55:03;;;;;;;13.63;9.93;;;;;;;22.08;61.68;101125.56;7381393;19;19949;-68
2023/06/26 03:57:32;;;;;;;11.88;8.95;;;;;;;22.09;61.74;101124.50;7378981;19;19915;-73
2023/06/26 04:00:00;;;;;;;10.90;9.50;;;;;;;22.13;61.10;101126.47;7380872;19;20574;-68
2023/06/26 04:02:29;;;;;;;13.90;9.70;;;;;;;22.13;61.58;101128.41;7379549;19;20290;-68
2023/06/26 04:05:01;;;;;;;11.52;9.68;;;;;;;22.13;61.93;101133.91;7377333;19;19915;-68
2023/06/26 04:07:30;;;;;;;11.43;9.30;;;;;;;22.11;61.79;101127.81;7379715;19;19919;-66
2023/06/26 04:09:59;;;;;;;11.07;9.07;;;;;;;22.12;61.33;101124.84;7377765;19;19930;-68
2023/06/26 04:12:28;;;;;;;12.18;9.57;;;;;;;22.13;61.85;101128.41;7381727;19;20362;-68
2023/06/26 04:14:57;;;;;;;13.55;10.40;;;;;;;22.13;61.74;101117.44;7380019;19;19974;-67
2023/06/26 04:17:25;;;;;;;14.63;9.85;;;;;;;22.16;61.32;101122.41;7380313;19;19934;-67
2023/06/26 04:19:54;;;;;;;12.88;9.05;;;;;;;22.13;61.62;101115.50;7379317;19;19946;-67
2023/06/26 04:22:25;;;;;;;13.77;9.77;;;;;;;22.15;62.04;101118.00;7378839;19;19923;-67
2023/06/26 04:24:54;;;;;;;15.73;9.82;;;;;;;22.17;62.34;101124.09;7379873;19;20606;-69
2023/06/26 04:27:23;;;;;;;11.55;9.07;;;;;;;22.18;62.10;101117.50;7386247;19;19941;-67
2023/06/26 04:29:52;;;;;;;14.38;9.45;;;;;;;22.21;61.28;101122.50;7381919;19;20363;-68
2023/06/26 04:32:21;;;;;;;9.82;8.80;;;;;;;22.24;61.60;101113.78;7383732;19;19925;-68
2023/06/26 04:34:49;;;;;;;12.48;9.07;;;;;;;22.30;61.84;101117.44;7381401;19;20839;-69
2023/06/26 04:37:18;;;;;;;11.57;8.45;;;;;;;22.36;61.27;101116.44;7378003;19;20328;-69
2023/06/26 04:39:50;;;;;;;11.27;8.70;;;;;;;22.43;60.95;101120.72;7379600;19;19922;-69
2023/06/26 04:42:18;;;;;;;9.35;8.02;;;;;;;22.50;60.70;101115.88;7379930;19;19922;-68
2023/06/26 04:44:47;;;;;;;11.15;8.82;;;;;;;22.53;60.83;101117.28;7378635;19;20904;-68
2023/06/26 04:47:16;;;;;;;12.18;8.75;;;;;;;22.55;60.62;101120.63;7378906;19;20839;-69
2023/06/26 04:49:45;;;;;;;10.00;8.18;;;;;;;22.53;60.55;101112.63;7379735;19;19968;-69
2023/06/26 04:52:15;;;;;;;11.13;8.40;;;;;;;22.49;60.49;101111.47;7380437;19;19934;-68
2023/06/26 04:54:44;;;;;;;10.52;7.50;;;;;;;22.49;61.03;101113.38;7379068;19;19919;-68
2023/06/26 04:57:16;;;;;;;10.15;8.18;;;;;;;22.49;60.87;101121.59;7378681;19;20314;-69
2023/06/26 04:59:45;;;;;;;10.23;8.40;;;;;;;22.47;60.89;101119.13;7375442;19;19953;-69
2023/06/26 05:02:14;;;;;;;8.98;8.05;;;;;;;22.47;60.73;101116.38;7372543;19;19982;-68
2023/06/26 05:04:43;;;;;;;12.00;8.20;;;;;;;22.50;60.64;101124.13;7377826;19;19922;-69
2023/06/26 05:07:12;;;;;;;12.23;7.78;;;;;;;22.47;60.99;101130.13;7377614;19;19922;-69
2023/06/26 05:09:42;;;;;;;10.32;7.70;;;;;;;22.48;60.87;101131.75;7378557;19;20626;-68
2023/06/26 05:12:12;;;;;;;12.63;8.18;;;;;;;22.47;60.78;101130.13;7379144;19;19922;-69
2023/06/26 05:14:43;;;;;;;12.88;8.07;;;;;;;22.50;61.35;101132.34;7376450;19;19972;-69
2023/06/26 05:17:12;;;;;;;11.25;7.50;;;;;;;22.53;60.96;101133.75;7381718;19;19918;-68
2023/06/26 05:19:41;;;;;;;12.68;8.00;;;;;;;22.57;61.50;101137.66;7384810;19;20265;-76
2023/06/26 05:22:11;;;;;;;10.07;7.53;;;;;;;22.61;61.13;101145.16;7390386;19;19925;-76
2023/06/26 05:24:41;;;;;;;9.93;7.25;;;;;;;22.68;61.03;101142.25;7390894;19;19915;-77
2023/06/26 05:27:12;;;;;;;14.18;7.63;;;;;;;22.80;60.92;101151.25;7390003;19;19922;-76
2023/06/26 05:29:44;;;;;;;9.00;6.32;;;;;;;22.85;61.41;101153.25;7384036;19;19933;-71
2023/06/26 05:32:13;;;;;;;8.48;5.97;;;;;;;22.86;61.57;101142.03;7385359;19;19942;-70
2023/06/26 05:34:44;;;;;;;11.27;6.13;;;;;;;22.81;61.30;101141.94;7384017;19;20297;-72
2023/06/26 05:37:17;;;;;;;7.80;6.15;;;;;;;22.81;61.70;101141.94;7384883;19;19923;-71
2023/06/26 05:39:46;;;;;;;7.40;5.55;;;;;;;22.80;61.37;101150.44;7383387;19;22124;-71
2023/06/26 05:42:16;;;;;;;9.10;5.78;;;;;;;22.77;61.73;101150.94;7385775;19;19919;-71
2023/06/26 05:44:47;;;;;;;10.15;6.53;;;;;;;22.76;62.91;101161.09;7382011;19;19924;-71
2023/06/26 05:47:16;;;;;;;9.15;5.80;;;;;;;22.76;62.31;101158.34;7386015;19;20265;-71
2023/06/26 05:49:45;;;;;;;10.05;5.53;;;;;;;22.74;62.75;101159.69;7383410;19;19929;-71
2023/06/26 05:52:15;;;;;;;12.30;5.60;;;;;;;22.76;62.93;101171.25;7387612;19;19929;-72
2023/06/26 05:54:44;;;;;;;12.43;5.63;;;;;;;22.80;63.43;101183.41;7385748;19;19922;-72
2023/06/26 05:57:16;;;;;;;12.75;5.90;;;;;;;22.82;63.97;101179.34;7356610;19;19929;-72
2023/06/26 05:59:47;;;;;;;9.68;6.25;;;;;;;22.89;63.99;101176.41;7382551;19;19938;-72
2023/06/26 06:02:16;;;;;;;10.98;6.65;;;;;;;22.92;63.24;101189.63;7382832;19;19923;-73
2023/06/26 06:04:45;;;;;;;12.38;6.40;;;;;;;22.87;62.63;101193.13;7385249;19;24150;-72
2023/06/26 06:07:14;;;;;;;15.75;6.93;;;;;;;22.68;63.19;101202.69;7387506;19;19930;-71
2023/06/26 06:09:44;;;;;;;11.02;6.22;;;;;;;22.55;63.22;101203.84;7383336;19;19918;-71
2023/06/26 06:12:13;;;;;;;13.40;6.75;;;;;;;22.42;63.82;101206.06;7385597;19;19919;-71
2023/06/26 06:14:41;;;;;;;17.25;7.47;;;;;;;22.30;63.95;101211.63;7385619;19;19921;-71
2023/06/26 06:17:13;;;;;;;16.52;6.93;;;;;;;22.20;65.01;101211.41;7385584;19;20224;-70
2023/06/26 06:19:41;;;;;;;18.75;8.18;;;;;;;22.06;64.72;101227.34;7380387;19;20011;-71
2023/06/26 06:22:10;;;;;;;13.00;7.57;;;;;;;21.99;65.66;101234.88;7374753;19;19986;-71
2023/06/26 06:24:39;;;;;;;16.35;7.47;;;;;;;21.92;65.63;101247.88;7382213;19;19930;-71
2023/06/26 06:27:08;;;;;;;12.02;5.80;;;;;;;21.73;65.58;101244.47;7384863;19;19935;-72
2023/06/26 06:29:36;;;;;;;8.50;5.13;;;;;;;21.61;66.29;101257.34;7381757;19;19998;-71
2023/06/26 06:32:06;;;;;;;11.88;5.78;;;;;;;21.56;66.00;101270.94;7382521;19;19926;-71
2023/06/26 06:34:37;;;;;;;11.25;5.45;;;;;;;21.45;67.11;101280.00;7383001;19;19937;-72
2023/06/26 06:37:07;;;;;;;12.85;4.68;;;;;;;21.42;66.43;101285.13;7383750;19;19926;-72
2023/06/26 06:39:35;;;;;;;12.70;4.70;;;;;;;21.31;67.24;101307.91;7382880;19;20861;-71
2023/06/26 06:42:10;;;;;;;13.43;4.90;;;;;;;21.19;67.58;101318.81;7383421;19;20167;-72
2023/06/26 06:44:39;;;;;;;11.82;4.53;;;;;;;21.15;67.65;101310.25;7382664;19;20339;-72
2023/06/26 06:47:08;;;;;;;9.85;3.67;;;;;;;21.09;67.96;101322.13;7383528;19;19946;-72
2023/06/26 06:49:39;;;;;;;12.25;4.00;;;;;;;21.14;68.02;101313.25;7383171;19;19926;-71
2023/06/26 06:52:09;;;;;;;12.52;3.92;;;;;;;21.22;67.81;101323.84;7387163;19;19919;-71
2023/06/26 06:54:54;;;;;;;10.77;3.65;;;;;;;21.26;68.35;101330.53;7381303;19;19926;-71
2023/06/26 06:57:23;;;;;;;9.82;3.17;;;;;;;21.40;66.72;101331.94;7385110;19;19939;-72
2023/06/26 06:59:51;;;;;;;9.00;3.25;;;;;;;21.44;66.05;101338.66;7379894;19;20384;-70
2023/06/26 07:02:20;;;;;;;10.13;3.22;;;;;;;21.50;65.91;101343.19;7384390;19;20324;-71
2023/06/26 07:04:52;;;;;;;7.70;3.22;;;;;;;21.55;65.87;101337.81;7380317;19;19926;-71
2023/06/26 07:07:21;;;;;;;8.15;2.85;;;;;;;21.63;65.57;101353.91;7379761;19;19941;-72
2023/06/26 07:09:51;;;;;;;6.88;2.28;;;;;;;21.64;65.33;101358.34;7378354;19;19978;-71
2023/06/26 07:12:20;;;;;;;7.88;2.63;;;;;;;21.59;65.75;101366.44;7377481;19;19926;-72
2023/06/26 07:14:48;;;;;;;7.78;2.20;;;;;;;21.55;65.06;101380.84;7378321;19;19946;-71
2023/06/26 07:17:17;;;;;;;10.80;2.75;;;;;;;21.49;64.78;101381.78;7381767;19;19990;-71
2023/06/26 07:19:46;;;;;;;6.43;1.92;;;;;;;21.47;64.19;101376.56;7378424;19;19928;-70
2023/06/26 07:22:20;;;;;;;7.82;2.22;;;;;;;21.38;63.72;101383.44;7381452;19;19933;-71
2023/06/26 07:24:48;;;;;;;5.38;1.70;;;;;;;21.32;63.69;101395.34;7374343;19;19915;-71
2023/06/26 07:27:18;;;;;;;5.82;1.60;;;;;;;21.31;62.97;101390.13;7377824;19;19927;-72
2023/06/26 07:29:47;;;;;;;6.53;2.00;;;;;;;21.34;63.22;101386.91;7378935;19;20018;-70
2023/06/26 07:32:16;;;;;;;4.05;1.70;;;;;;;21.48;62.98;101391.94;7380064;19;19939;-71
2023/06/26 07:34:45;;;;;;;7.18;1.67;;;;;;;21.58;62.50;101391.34;7379262;19;19918;-72
2023/06/26 07:37:13;;;;;;;7.53;2.00;;;;;;;21.53;62.77;101383.00;7378545;19;20345;-71
2023/06/26 07:39:45;;;;;;;6.10;2.45;;;;;;;21.58;62.23;101388.59;7373550;19;19914;-72
2023/06/26 07:42:13;;;;;;;6.43;1.95;;;;;;;21.68;61.63;101389.69;7378740;19;19927;-72
2023/06/26 07:44:43;;;;;;;6.22;2.28;;;;;;;21.78;61.25;101397.34;7378593;19;20019;-72
2023/06/26 07:47:12;;;;;;;7.95;2.17;;;;;;;21.86;60.86;101409.84;7380298;19;19927;-71
2023/06/26 07:49:41;;;;;;;8.82;2.28;;;;;;;21.82;61.23;101395.78;7379394;19;19922;-71
2023/06/26 07:52:11;;;;;;;5.72;1.65;;;;;;;21.83;60.33;101391.13;7384133;19;20010;-71
2023/06/26 07:54:40;;;;;;;8.15;1.60;;;;;;;21.90;60.41;101392.69;7378061;19;19923;-73
2023/06/26 07:57:12;;;;;;;6.43;1.70;;;;;;;22.01;57.35;101399.25;7379849;19;19957;-72
2023/06/26 07:59:41;;;;;;;7.43;1.42;;;;;;;21.97;57.79;101404.38;7374452;19;19915;-73
2023/06/26 08:02:10;;;;;;;11.13;1.70;;;;;;;21.84;57.60;101409.25;7380473;19;19918;-72
2023/06/26 08:04:39;;;;;;;4.70;1.60;;;;;;;21.91;58.19;101412.72;7377595;19;19929;-72
2023/06/26 08:07:09;;;;;;;5.90;1.67;;;;;;;22.06;58.49;101424.06;7379764;19;20325;-72
2023/06/26 08:09:38;;;;;;;3.80;1.35;;;;;;;22.08;58.12;101420.03;7379844;19;19930;-72
2023/06/26 08:12:11;;;;;;;5.10;1.10;;;;;;;22.10;57.21;101436.22;7381748;19;19922;-71
2023/06/26 08:14:39;;;;;;;3.80;1.20;;;;;;;22.15;57.55;101428.13;7377188;19;22858;-71
2023/06/26 08:17:08;;;;;;;3.17;1.30;;;;;;;22.22;57.48;101425.25;7381137;19;19997;-71
2023/06/26 08:19:37;;;;;;;3.53;1.70;;;;;;;22.34;57.48;101434.31;7375765;19;19933;-73
2023/06/26 08:22:06;;;;;;;6.97;1.83;;;;;;;22.31;56.76;101440.25;7377612;19;20401;-73
2023/06/26 08:24:36;;;;;;;7.70;2.10;;;;;;;22.34;56.43;101432.41;7376485;19;19919;-73
2023/06/26 08:27:07;;;;;;;5.65;1.30;;;;;;;22.39;56.50;101454.47;7375018;19;20434;-73
2023/06/26 08:29:39;;;;;;;5.90;1.48;;;;;;;22.37;55.86;101442.91;7378971;19;19922;-73
2023/06/26 08:32:08;;;;;;;6.90;2.03;;;;;;;22.42;55.98;101440.28;7374781;19;19993;-73
2023/06/26 08:34:37;;;;;;;3.75;1.10;;;;;;;22.34;55.69;101462.59;7376645;19;19939;-73
2023/06/26 08:37:09;;;;;;;6.78;1.25;;;;;;;22.36;55.49;101452.19;7375782;19;19933;-71
2023/06/26 08:39:37;;;;;;;;;;;;;;;22.11;54.83;101471.69;7379103;19;19922;-71
2023/06/26 08:42:06;;;;;;;5.90;1.35;;;;;;;22.32;55.10;101483.13;7375563;19;19953;-71
2023/06/26 08:44:35;;;;;;;3.72;1.13;;;;;;;22.32;53.80;101472.97;7377764;19;19927;-72
2023/06/26 08:47:07;;;;;;;5.80;1.00;;;;;;;22.31;54.70;101471.31;7378350;19;19946;-72
2023/06/26 08:49:45;;;;;;;6.53;1.08;;;;;;;22.23;54.08;101476.31;7377803;19;19926;-72
2023/06/26 08:52:20;;;;;;;4.75;1.00;;;;;;;22.23;53.53;101479.91;7381481;19;19936;-71
2023/06/26 08:54:51;;;;;;;2.63;1.13;;;;;;;22.21;54.31;101481.22;7383028;19;19999;-71
2023/06/26 08:57:21;;;;;;;;;;;;;;;22.01;54.47;101484.31;7389091;19;19930;-71
2023/06/26 08:59:50;;;;;;;5.20;1.02;;;;;;;22.10;55.33;101489.22;7382797;19;19938;-72
2023/06/26 09:02:23;;;;;;;4.03;0.93;;;;;;;22.14;54.25;101492.31;7385045;19;20322;-71
2023/06/26 09:04:53;;;;;;;2.30;1.15;;;;;;;22.26;54.09;101489.59;7380519;19;21035;-72
2023/06/26 09:07:22;;;;;;;2.38;1.00;;;;;;;22.37;54.38;101491.47;7385547;19;19930;-71
2023/06/26 09:09:51;;;;;;;3.33;0.80;;;;;;;22.38;54.00;101504.97;7379421;19;20011;-73
2023/06/26 09:12:20;;;;;;;3.05;1.35;;;;;;;22.40;53.98;101508.31;7385682;19;19992;-71
2023/06/26 09:14:50;;;;;;;5.15;1.00;;;;;;;22.46;54.02;101501.88;7382930;19;20404;-71
2023/06/26 09:17:21;;;;;;;4.50;1.30;;;;;;;22.53;54.15;101505.31;7385190;19;19919;-72
2023/06/26 09:19:51;;;;;;;5.15;1.35;;;;;;;22.56;54.07;101506.75;7380406;19;19922;-72
2023/06/26 09:22:20;;;;;;;3.08;1.30;;;;;;;22.59;54.13;101511.75;7381043;19;19918;-71
2023/06/26 09:24:48;;;;;;;3.03;1.05;;;;;;;22.71;53.27;101509.00;7380060;19;19953;-71
2023/06/26 09:27:18;;;;;;;4.72;1.73;;;;;;;22.68;53.30;101504.81;7380087;19;19978;-71
2023/06/26 09:29:48;;;;;;;6.38;1.25;;;;;;;22.58;53.34;101508.19;7381198;19;19939;-73
2023/06/26 09:32:17;;;;;;;6.15;1.60;;;;;;;22.48;53.74;101510.69;7382513;19;20356;-72
2023/06/26 09:34:48;;;;;;;3.55;1.15;;;;;;;22.58;53.73;101516.41;7380388;19;19989;-73
2023/06/26 09:37:17;;;;;;;4.68;1.65;;;;;;;22.70;53.42;101516.41;7373345;19;19990;-69
2023/06/26 09:39:46;;;;;;;5.70;1.30;;;;;;;22.86;53.01;101523.09;7375444;19;19949;-71
2023/06/26 09:42:16;;;;;;;4.28;1.15;;;;;;;22.89;52.51;101519.84;7383753;19;19927;-73
2023/06/26 09:44:46;;;;;;;3.78;1.15;;;;;;;22.77;52.51;101519.06;7383624;19;19926;-72
2023/06/26 09:47:18;;;;;;;6.07;1.42;;;;;;;22.58;53.69;101532.88;7383819;19;19935;-73
2023/06/26 09:49:50;;;;;;;5.43;1.50;;;;;;;22.47;53.56;101524.66;7384476;19;19926;-72
2023/06/26 09:52:19;;;;;;;;;;;;;;;22.40;52.91;101532.19;7390250;19;20391;-74
2023/06/26 09:54:48;;;;;;;6.97;1.60;;;;;;;22.62;52.94;101544.22;7382031;19;19925;-73
2023/06/26 09:57:20;;;;;;;3.67;1.70;;;;;;;22.72;52.19;101541.75;7379605;19;22345;-71
2023/06/26 09:59:49;;;;;;;6.35;1.67;;;;;;;22.95;52.09;101530.69;7379566;19;19930;-72
2023/06/26 10:02:18;;;;;;;4.22;1.30;;;;;;;23.14;52.22;101545.13;7381252;19;20009;-71
2023/06/26 10:04:50;;;;;;;5.57;1.58;;;;;;;23.36;51.70;101548.03;7378875;19;19925;-72
2023/06/26 10:07:19;;;;;;;8.15;1.70;;;;;;;23.39;51.16;101550.28;7382150;19;19918;-73
2023/06/26 10:09:50;;;;;;;4.85;1.50;;;;;;;23.29;50.59;101563.84;7383406;19;20023;-71
2023/06/26 10:12:27;;;;;;;3.03;1.25;;;;;;;23.14;49.81;101556.13;7381662;19;19978;-72
2023/06/26 10:14:58;;;;;;;4.55;1.38;;;;;;;22.95;49.50;101555.44;7382382;19;19929;-72
2023/06/26 10:17:30;;;;;;;1.52;1.10;;;;;;;23.12;48.87;101550.03;7381461;19;19930;-72
2023/06/26 10:20:06;;;;;;;2.88;1.63;;;;;;;23.39;48.88;101561.28;7378008;19;19926;-73
2023/06/26 10:22:44;;;;;;;2.78;1.17;;;;;;;23.72;48.08;101544.91;7381332;19;19926;-73
2023/06/26 10:25:14;;;;;;;5.35;1.30;;;;;;;23.55;48.19;101554.22;7381628;19;19923;-73
2023/06/26 10:27:46;;;;;;;2.13;1.15;;;;;;;23.22;47.90;101576.88;7381827;19;20236;-73
2023/06/26 10:30:20;;;;;;;3.95;1.40;;;;;;;23.10;47.74;101576.09;7375693;19;20309;-73
2023/06/26 10:32:50;;;;;;;3.30;1.40;;;;;;;23.22;48.39;101582.38;7383344;19;19930;-72
2023/06/26 10:35:22;;;;;;;4.90;1.38;;;;;;;23.51;48.64;101573.13;7379258;19;20367;-72
2023/06/26 10:37:51;;;;;;;4.63;1.30;;;;;;;23.47;47.03;101581.00;7381414;19;19929;-72
2023/06/26 10:40:27;;;;;;;3.65;1.30;;;;;;;23.51;44.67;101587.69;7380666;19;19926;-72
2023/06/26 10:43:09;;;;;;;5.43;1.75;;;;;;;23.29;45.08;101574.84;7378431;19;19923;-73
2023/06/26 10:45:38;;;;;;;3.00;1.15;;;;;;;23.37;46.00;101575.31;7379232;19;19943;-72
2023/06/26 10:48:07;;;;;;;7.10;1.48;;;;;;;23.46;44.40;101578.53;7381188;19;20517;-74
2023/06/26 10:50:39;;;;;;;3.50;1.20;;;;;;;23.58;43.49;101567.47;7384382;19;19914;-71
2023/06/26 10:53:18;;;;;;;3.92;1.48;;;;;;;23.78;43.69;101595.34;7379794;19;19926;-72
2023/06/26 10:55:53;;;;;;;3.55;1.42;;;;;;;23.93;42.74;101590.16;7378693;19;19935;-72
2023/06/26 10:58:35;;;;;;;3.47;1.30;;;;;;;24.09;43.67;101564.53;7378375;19;19926;-72
2023/06/26 11:01:42;;;;;;;4.10;1.45;;;;;;;24.11;45.76;101576.16;7375590;19;19972;-74
2023/06/26 11:04:11;;;;;;;5.13;1.42;;;;;;;24.09;44.69;101588.47;7381151;19;19989;-73
2023/06/26 11:06:43;;;;;;;2.33;1.10;;;;;;;23.93;44.24;101588.22;7378456;19;19926;-75
2023/06/26 11:09:14;;;;;;;2.53;1.50;;;;;;;23.83;43.13;101609.22;7381514;19;19984;-72
2023/06/26 11:12:09;;;;;;;3.45;1.17;;;;;;;23.91;40.85;101615.16;7379548;19;20233;-72
2023/06/26 11:14:42;;;;;;;2.38;1.38;;;;;;;24.06;43.04;101602.75;7374436;19;19922;-72
2023/06/26 11:17:14;;;;;;;4.13;1.77;;;;;;;24.15;43.22;101604.88;7382756;19;19918;-74
2023/06/26 11:19:46;;;;;;;4.60;1.50;;;;;;;24.42;43.33;101602.28;7380731;19;19934;-73
2023/06/26 11:22:18;;;;;;;5.13;1.42;;;;;;;24.54;41.18;101602.22;7381475;19;19967;-72
2023/06/26 11:24:47;;;;;;;4.13;1.20;;;;;;;24.65;40.16;101601.28;7382871;19;19947;-73
2023/06/26 11:27:16;;;;;;;2.47;1.30;;;;;;;24.52;39.48;101615.41;7378536;19;19929;-72
2023/06/26 11:29:50;;;;;;;3.30;1.52;;;;;;;24.56;39.58;101613.81;7377613;19;19926;-71
2023/06/26 11:32:19;;;;;;;2.35;1.60;;;;;;;24.30;42.47;101607.06;7377661;19;19974;-72
2023/06/26 11:34:51;;;;;;;4.38;1.45;;;;;;;24.13;43.46;101607.00;7376984;19;19978;-71
2023/06/26 11:37:23;;;;;;;3.17;1.58;;;;;;;24.34;42.38;101608.22;7372744;19;19933;-72